Annawan, Illinois
Current Conditions -  °F | °C
As of 10:15 PM on Monday 22 Dec 2014 (Local Time) from KSQI Reporting Station
Overcast Overcast  
Wind Chill:   Ceiling: 400
Heat Index:   Visibility: 4mi
Dew Point:   Wind: 10mph
Humidity: 87%   Direction: 110°ESE
Pressure: 29.53"   Gusts: NA
Location:  41.4°N, 89.9°W
Report Text: KSQI 230415Z 11009KT 4SM OVC004 05/03 A2953 RMK AO1
Loading
Personal Weather Stations






























Interactive Weather Map New forecast layout! Learn more

10-Day Weather Forecast

Advertisements
Track Severe Weather on mobile